Airfield :
LOGIN :

Register | Disclaimer

   EN    FR    IT 

 










Legend :    VFR   Marginal VFR   IFR   Intensive IFR   Very Intensive IFR
Visi :
Ceiling :
>= 8 km
>= 3000ft
5 to 8 km
1000 to 3000 ft
1500m to 5 km
500 to 1000 ft
800 to 1500m
200 to 500 ft
< 800m
< 200 ft
Symbols :   Thunderstorms  Fog  Heavy snow  Heavy precipitations  Wind > 20 kt
SIGMETs :     Misc.  Thunderstorms  Icing  Turbulence  Mountain Waves  Volcanic Ashes







- Airport Elevation : 505 ft
- IATA code : SXB
- Download approach charts


LFST - Strasbourg

CURRENT METAR :
  • 210700Z AUTO 36008KT 6000 OVC012 M03/M05 Q1021 TEMPO 4000 BR BKN005

EXPIRED METARs :
  • 210630Z AUTO 01008KT 6000 OVC012 M03/M05 Q1021 TEMPO 4000 BR BKN005
  • 210600Z AUTO 01007KT 6000 OVC012 M03/M05 Q1020 TEMPO 4000 BR BKN005
  • 210530Z AUTO 01008KT 6000 BKN013 OVC035 M03/M05 Q1020 TEMPO 4000 BR BKN005
  • 210500Z AUTO 36007KT 6000 OVC013 M02/M05 Q1020 TEMPO 4500 BR BKN007 BKN015
  • 210430Z AUTO 36008KT 7000 BKN013 OVC021 M02/M05 Q1020
  • 210400Z AUTO 35008KT 6000 SCT013 OVC020 M02/M05 Q1020

TAF TAF LFST
Valid from the 21 at 06:00 until the 22 at 06:00 UTC


210500Z 2106/2206 35010KT 6000 BKN013 BKN020
TEMPO 2106/2110 4000 BR BKN005
BECMG 2110/2114 CAVOK
BECMG 2122/2124 4000 BR
PROB30
TEMPO 2200/2206 BKN005
No reported NOTAMs for that airfield.



MET'MAP, your aeronautical weather chart ! - Copyright ORBIFLY December 2007 - Disclaimer

ORBIFLY MET'MAP TEAM :

Programming & Development : Alexandra Zaïnal
Concept & Development : Baudouin d'Aumeries
Co-Development & Prog : Marc-Olivier Méhu
Technical & hardware support : Manuel Goepfert

Contact : metmap@orbifly.com




SOURCES & CREDITS :

   NOAA